Time;durP1;ratioP1;P1;durP2;ratioP2;P2;SDS_P1;SDS_P2;PMS_P1;PMS_P2;Temp;Humidity;BMP_temperature;BMP_pressure;BME280_temperature;BME280_humidity;BME280_pressure;Samples;Min_cycle;Max_cycle;Signal;HPM_P1;HPM_P2
2022/04/04 00:01:34;;;;;;;0.50;0.50;;;2.00;77.30;;;;;;5033423;28;20171;-66
2022/04/04 00:03:59;;;;;;;0.33;0.33;;;2.10;76.60;;;;;;5033479;28;20169;-66
2022/04/04 00:06:28;;;;;;;0.30;0.30;;;2.10;76.90;;;;;;5033471;28;20530;-66
2022/04/04 00:08:53;;;;;;;0.40;0.40;;;2.20;76.70;;;;;;5033186;28;20508;-66
2022/04/04 00:11:19;;;;;;;0.40;0.40;;;2.00;75.40;;;;;;5033514;28;20377;-66
2022/04/04 00:13:44;;;;;;;0.30;0.30;;;2.10;75.70;;;;;;5033332;28;20171;-66
2022/04/04 00:16:10;;;;;;;0.40;0.40;;;2.20;75.80;;;;;;5033406;28;20695;-66
2022/04/04 00:18:36;;;;;;;0.40;0.40;;;2.20;75.40;;;;;;5033347;28;20270;-66
2022/04/04 00:21:04;;;;;;;0.30;0.30;;;2.30;75.90;;;;;;5033055;28;20244;-66
2022/04/04 00:23:30;;;;;;;0.40;0.40;;;2.40;74.90;;;;;;5033318;28;20670;-66
2022/04/04 00:25:56;;;;;;;0.40;0.40;;;2.50;73.60;;;;;;5033562;28;20225;-66
2022/04/04 00:28:21;;;;;;;0.40;0.40;;;2.60;72.70;;;;;;5033258;28;20437;-66
2022/04/04 00:30:47;;;;;;;0.40;0.40;;;2.70;73.60;;;;;;5033001;28;20501;-66
2022/04/04 00:33:12;;;;;;;0.40;0.40;;;2.70;74.10;;;;;;5033191;28;20176;-66
2022/04/04 00:35:38;;;;;;;0.30;0.30;;;2.60;74.60;;;;;;5033193;28;20277;-66
2022/04/04 00:38:08;;;;;;;1.60;1.47;;;2.70;73.80;;;;;;5032864;28;20182;-66
2022/04/04 00:40:34;;;;;;;2.03;1.95;;;2.80;73.90;;;;;;5032826;28;20214;-66
2022/04/04 00:43:00;;;;;;;0.40;0.40;;;2.90;74.30;;;;;;5033183;28;20198;-66
2022/04/04 00:45:25;;;;;;;0.30;0.30;;;2.80;74.40;;;;;;5033059;28;20171;-66
2022/04/04 00:47:51;;;;;;;0.50;0.50;;;2.80;74.30;;;;;;5033120;28;20170;-66
2022/04/04 00:50:17;;;;;;;0.40;0.40;;;2.80;73.90;;;;;;5032775;28;20309;-66
2022/04/04 00:52:42;;;;;;;0.40;0.40;;;2.90;73.90;;;;;;5033454;28;20602;-66
2022/04/04 00:55:09;;;;;;;0.30;0.30;;;2.80;72.70;;;;;;5032824;28;20258;-66
2022/04/04 00:57:36;;;;;;;0.30;0.30;;;2.80;72.30;;;;;;5032854;28;20167;-66
2022/04/04 01:00:04;;;;;;;0.30;0.30;;;2.70;70.40;;;;;;5032918;28;20195;-66
2022/04/04 01:02:30;;;;;;;0.40;0.40;;;2.70;70.80;;;;;;5036572;28;20567;-66
2022/04/04 01:04:55;;;;;;;0.40;0.40;;;2.70;70.60;;;;;;5036436;28;20162;-66
2022/04/04 01:07:21;;;;;;;0.30;0.30;;;2.70;70.80;;;;;;5036925;28;20199;-66
2022/04/04 01:09:47;;;;;;;0.40;0.40;;;2.70;71.20;;;;;;5036210;28;20207;-66
2022/04/04 01:12:14;;;;;;;0.40;0.40;;;2.60;69.00;;;;;;5036643;28;20163;-66
2022/04/04 01:14:47;;;;;;;0.30;0.30;;;2.50;68.80;;;;;;5036503;28;20576;-66
2022/04/04 01:17:18;;;;;;;0.30;0.30;;;2.50;69.40;;;;;;5036590;28;20171;-66
2022/04/04 01:19:44;;;;;;;0.40;0.40;;;2.60;70.50;;;;;;5036268;28;20198;-66
2022/04/04 01:22:12;;;;;;;0.40;0.40;;;2.60;71.40;;;;;;5036455;28;20331;-66
2022/04/04 01:24:39;;;;;;;0.47;0.47;;;2.60;70.90;;;;;;5036148;28;20447;-66
2022/04/04 01:27:09;;;;;;;0.40;0.40;;;2.60;71.60;;;;;;5036266;28;20186;-66
2022/04/04 01:29:35;;;;;;;0.77;0.77;;;2.50;69.80;;;;;;5035905;28;20280;-66
2022/04/04 01:32:01;;;;;;;0.30;0.30;;;2.50;70.90;;;;;;5036208;28;20227;-66
2022/04/04 01:34:29;;;;;;;0.57;0.57;;;2.40;69.90;;;;;;5036085;28;20178;-66
2022/04/04 01:36:54;;;;;;;0.30;0.30;;;2.40;70.00;;;;;;5035988;28;20417;-66
2022/04/04 01:39:20;;;;;;;0.40;0.40;;;2.50;70.40;;;;;;5036156;28;20206;-66
2022/04/04 01:41:46;;;;;;;0.40;0.40;;;2.50;69.20;;;;;;5035996;28;20175;-66
2022/04/04 01:44:11;;;;;;;0.40;0.40;;;2.40;69.20;;;;;;5036060;28;20228;-66
2022/04/04 01:46:37;;;;;;;0.40;0.40;;;2.50;69.70;;;;;;5036227;28;20171;-66
2022/04/04 01:49:05;;;;;;;0.30;0.30;;;2.50;69.40;;;;;;5035879;28;20588;-66
2022/04/04 01:51:32;;;;;;;0.50;0.50;;;2.50;69.70;;;;;;5035795;28;20171;-66
2022/04/04 01:53:58;;;;;;;0.40;0.40;;;2.60;69.60;;;;;;5035925;28;20228;-66
2022/04/04 01:56:24;;;;;;;2.35;2.25;;;2.50;68.90;;;;;;5036011;28;20167;-66
2022/04/04 01:58:50;;;;;;;0.40;0.40;;;2.50;69.30;;;;;;5035943;28;20278;-66
2022/04/04 02:01:21;;;;;;;0.50;0.50;;;2.60;70.30;;;;;;5035784;28;20254;-66
2022/04/04 02:03:50;;;;;;;0.35;0.35;;;2.60;70.80;;;;;;5035677;28;20289;-66
2022/04/04 02:06:18;;;;;;;0.40;0.40;;;2.60;69.10;;;;;;5035516;28;20167;-66
2022/04/04 02:08:44;;;;;;;0.40;0.40;;;2.40;69.00;;;;;;5035588;28;20201;-66
2022/04/04 02:11:11;;;;;;;0.40;0.40;;;2.10;70.00;;;;;;5035627;28;20174;-66
2022/04/04 02:13:37;;;;;;;0.40;0.40;;;2.10;70.60;;;;;;5034752;28;20653;-66
2022/04/04 02:16:04;;;;;;;0.50;0.50;;;2.20;71.30;;;;;;5035282;28;20198;-66
2022/04/04 02:18:31;;;;;;;1.67;1.58;;;2.30;70.80;;;;;;5035448;28;20433;-66
2022/04/04 02:20:58;;;;;;;0.38;0.38;;;2.40;70.60;;;;;;5034853;28;20569;-66
2022/04/04 02:23:24;;;;;;;0.30;0.30;;;2.40;70.90;;;;;;5035138;28;20206;-66
2022/04/04 02:25:52;;;;;;;0.40;0.40;;;2.30;71.20;;;;;;5035229;28;20171;-66
2022/04/04 02:28:18;;;;;;;0.50;0.50;;;2.40;71.60;;;;;;5035048;28;20210;-66
2022/04/04 02:30:46;;;;;;;0.40;0.40;;;2.30;71.10;;;;;;5035036;28;20217;-66
2022/04/04 02:33:12;;;;;;;0.40;0.40;;;2.40;72.70;;;;;;5035124;28;20540;-66
2022/04/04 02:35:38;;;;;;;0.50;0.50;;;2.30;72.80;;;;;;5035036;28;20197;-66
2022/04/04 02:38:05;;;;;;;0.40;0.40;;;2.40;72.60;;;;;;5035090;28;20189;-66
2022/04/04 02:40:32;;;;;;;0.40;0.40;;;2.50;72.60;;;;;;5034600;28;20191;-66
2022/04/04 02:42:57;;;;;;;0.40;0.40;;;2.40;71.10;;;;;;5034736;28;20194;-66
2022/04/04 02:45:23;;;;;;;0.50;0.50;;;2.30;71.70;;;;;;5034634;28;20366;-66
2022/04/04 02:47:49;;;;;;;0.40;0.40;;;2.10;72.80;;;;;;5034685;28;20903;-66
2022/04/04 02:50:15;;;;;;;0.40;0.40;;;2.00;73.20;;;;;;5034691;28;21005;-66
2022/04/04 02:52:41;;;;;;;0.40;0.40;;;2.10;74.60;;;;;;5034836;28;20225;-66
2022/04/04 02:57:52;;;;;;;0.82;0.82;;;2.10;75.60;;;;;;5034867;28;20201;-66
2022/04/04 03:00:19;;;;;;;0.55;0.55;;;2.20;75.50;;;;;;5034507;28;20384;-66
2022/04/04 03:02:48;;;;;;;0.30;0.30;;;2.20;75.00;;;;;;5034728;28;20194;-66
2022/04/04 03:05:13;;;;;;;0.40;0.40;;;2.20;75.40;;;;;;5034621;28;20197;-66
2022/04/04 03:07:39;;;;;;;0.47;0.47;;;2.30;75.70;;;;;;5034543;28;20254;-66
2022/04/04 03:10:06;;;;;;;0.40;0.40;;;2.20;75.30;;;;;;5034008;28;20432;-66
2022/04/04 03:12:32;;;;;;;0.50;0.50;;;2.10;74.60;;;;;;5034512;28;20409;-66
2022/04/04 03:14:57;;;;;;;0.40;0.40;;;2.10;75.00;;;;;;5034294;28;20186;-66
2022/04/04 03:17:25;;;;;;;0.40;0.40;;;1.70;75.50;;;;;;5034475;28;20437;-66
2022/04/04 03:19:51;;;;;;;0.30;0.30;;;1.50;76.60;;;;;;5034092;28;20425;-66
2022/04/04 03:22:17;;;;;;;0.40;0.40;;;1.40;77.30;;;;;;5034156;28;20702;-66
2022/04/04 03:24:44;;;;;;;0.40;0.40;;;1.30;77.70;;;;;;5034139;28;20250;-66
2022/04/04 03:27:13;;;;;;;0.40;0.40;;;1.50;78.20;;;;;;5034288;28;20409;-66
2022/04/04 03:29:39;;;;;;;0.52;0.52;;;1.60;77.90;;;;;;5034096;28;20187;-66
2022/04/04 03:32:06;;;;;;;0.40;0.40;;;1.50;77.60;;;;;;5034033;28;20198;-66
2022/04/04 03:34:32;;;;;;;0.40;0.40;;;1.50;77.90;;;;;;5034036;28;20278;-66
2022/04/04 03:36:58;;;;;;;0.30;0.30;;;1.70;78.20;;;;;;5034241;28;20559;-66
2022/04/04 03:39:23;;;;;;;0.40;0.40;;;1.70;79.10;;;;;;5033966;28;20194;-66
2022/04/04 03:41:50;;;;;;;0.40;0.40;;;1.70;77.50;;;;;;5033724;28;20170;-66
2022/04/04 03:44:15;;;;;;;0.40;0.40;;;1.80;77.80;;;;;;5033819;28;20182;-66
2022/04/04 03:46:41;;;;;;;0.40;0.40;;;1.70;77.30;;;;;;5033820;28;20174;-66
2022/04/04 03:49:06;;;;;;;0.40;0.40;;;1.60;77.90;;;;;;5049044;28;20684;-66
2022/04/04 03:51:32;;;;;;;0.40;0.40;;;1.60;77.50;;;;;;5033807;28;20171;-66
2022/04/04 03:53:58;;;;;;;0.40;0.40;;;1.60;77.80;;;;;;5033738;28;20167;-66
2022/04/04 03:56:24;;;;;;;0.40;0.40;;;1.50;78.00;;;;;;5033790;28;20663;-66
2022/04/04 03:58:53;;;;;;;0.40;0.40;;;1.50;78.60;;;;;;5033469;28;20198;-66
2022/04/04 04:01:19;;;;;;;0.40;0.40;;;1.30;79.20;;;;;;5033636;28;20185;-66
2022/04/04 04:03:44;;;;;;;0.50;0.50;;;1.20;79.60;;;;;;5033515;28;20564;-66
2022/04/04 04:06:13;;;;;;;0.50;0.50;;;1.20;79.70;;;;;;5033539;28;20417;-66
2022/04/04 04:08:45;;;;;;;0.40;0.40;;;1.20;80.00;;;;;;5033487;28;20189;-66
2022/04/04 04:11:11;;;;;;;0.40;0.40;;;1.10;80.30;;;;;;5033501;28;20171;-66
2022/04/04 04:13:37;;;;;;;0.50;0.50;;;1.00;80.40;;;;;;5033398;28;20266;-66
2022/04/04 04:16:04;;;;;;;0.50;0.50;;;1.00;80.60;;;;;;5033542;28;20177;-66
2022/04/04 04:18:29;;;;;;;0.40;0.40;;;0.90;80.80;;;;;;5033356;28;20677;-66
2022/04/04 04:20:55;;;;;;;0.40;0.40;;;0.80;81.30;;;;;;5032900;28;20183;-66
2022/04/04 04:23:21;;;;;;;0.40;0.40;;;0.70;81.90;;;;;;5033506;28;20228;-66
2022/04/04 04:25:48;;;;;;;0.40;0.40;;;0.70;82.40;;;;;;5033359;28;20250;-66
2022/04/04 04:28:13;;;;;;;0.50;0.50;;;0.60;82.70;;;;;;5033075;28;20426;-66
2022/04/04 04:30:40;;;;;;;0.40;0.40;;;0.70;83.00;;;;;;5033125;28;20170;-66
2022/04/04 04:33:07;;;;;;;0.68;0.68;;;0.60;83.10;;;;;;5033372;28;20532;-66
2022/04/04 04:35:33;;;;;;;0.50;0.50;;;0.60;83.30;;;;;;5034860;28;20726;-66
2022/04/04 04:38:00;;;;;;;0.50;0.50;;;0.60;83.10;;;;;;5037342;28;20257;-66
2022/04/04 04:40:26;;;;;;;0.60;0.60;;;0.50;83.40;;;;;;5037074;28;20534;-66
2022/04/04 04:42:52;;;;;;;0.57;0.57;;;0.40;83.40;;;;;;5037257;28;20664;-66
2022/04/04 04:45:18;;;;;;;0.70;0.70;;;0.20;83.40;;;;;;5035975;28;20175;-66
2022/04/04 04:47:45;;;;;;;0.40;0.40;;;0.10;83.60;;;;;;5037581;28;20519;-66
2022/04/04 04:50:13;;;;;;;0.70;0.70;;;0.00;84.40;;;;;;5036823;28;20668;-66
2022/04/04 04:52:40;;;;;;;0.63;0.63;;;-0.10;85.30;;;;;;5036398;28;20174;-66
2022/04/04 04:55:08;;;;;;;0.60;0.60;;;0.00;85.70;;;;;;5036895;28;20228;-66
2022/04/04 04:57:33;;;;;;;0.60;0.60;;;0.00;85.30;;;;;;5036665;28;20178;-66
2022/04/04 05:00:02;;;;;;;0.90;0.90;;;0.00;85.50;;;;;;5036647;28;20201;-66
2022/04/04 05:02:28;;;;;;;0.65;0.65;;;0.00;85.30;;;;;;5035571;28;20202;-66
2022/04/04 05:04:54;;;;;;;0.40;0.40;;;0.10;85.10;;;;;;5036683;28;20254;-66
2022/04/04 05:07:20;;;;;;;0.60;0.60;;;0.10;85.00;;;;;;5036678;28;20167;-66
2022/04/04 05:09:46;;;;;;;1.07;1.07;;;0.00;84.60;;;;;;5036608;28;20190;-66
2022/04/04 05:12:11;;;;;;;0.70;0.70;;;0.10;85.30;;;;;;5036540;28;20409;-66
2022/04/04 05:14:40;;;;;;;0.63;0.63;;;0.10;85.90;;;;;;5036893;28;20182;-66
2022/04/04 05:17:05;;;;;;;0.50;0.50;;;0.20;86.10;;;;;;5036507;28;20463;-66
2022/04/04 05:19:32;;;;;;;0.60;0.60;;;0.20;86.00;;;;;;5034259;28;20202;-65
2022/04/04 05:21:57;;;;;;;0.60;0.60;;;0.30;86.20;;;;;;5036547;28;20785;-66
2022/04/04 05:24:23;;;;;;;0.50;0.50;;;0.30;86.50;;;;;;5036708;28;20220;-66
2022/04/04 05:26:49;;;;;;;0.50;0.50;;;0.30;86.20;;;;;;5036782;28;20527;-66
2022/04/04 05:29:17;;;;;;;0.50;0.50;;;0.30;86.20;;;;;;5034049;28;20687;-66
2022/04/04 05:31:45;;;;;;;0.68;0.68;;;0.50;86.40;;;;;;5035961;28;20220;-66
2022/04/04 05:34:11;;;;;;;0.68;0.68;;;0.60;86.80;;;;;;5036120;28;20224;-66
2022/04/04 05:36:37;;;;;;;0.40;0.40;;;0.80;86.90;;;;;;5036346;28;20220;-66
2022/04/04 05:39:05;;;;;;;0.50;0.50;;;0.90;85.80;;;;;;5035897;28;20270;-66
2022/04/04 05:41:32;;;;;;;0.70;0.70;;;1.10;85.60;;;;;;5035858;28;20175;-66
2022/04/04 05:43:58;;;;;;;0.60;0.60;;;1.10;84.40;;;;;;5036066;28;20615;-66
2022/04/04 05:46:24;;;;;;;0.40;0.40;;;0.80;83.20;;;;;;5035210;28;20206;-66
2022/04/04 05:48:50;;;;;;;0.55;0.55;;;0.60;83.70;;;;;;5035359;28;20191;-66
2022/04/04 05:51:17;;;;;;;0.50;0.50;;;0.30;84.40;;;;;;5036141;28;20633;-66
2022/04/04 05:53:44;;;;;;;0.40;0.40;;;0.30;84.50;;;;;;5036083;28;20183;-66
2022/04/04 05:56:10;;;;;;;0.50;0.50;;;0.60;84.50;;;;;;5035927;28;20582;-66
2022/04/04 05:58:36;;;;;;;0.50;0.50;;;0.80;84.70;;;;;;5035901;28;20191;-66
2022/04/04 06:01:03;;;;;;;0.65;0.65;;;1.10;83.50;;;;;;5035239;28;20412;-66
2022/04/04 06:03:29;;;;;;;0.40;0.40;;;1.30;82.30;;;;;;5033517;28;20210;-66
2022/04/04 06:05:55;;;;;;;0.40;0.40;;;1.50;80.90;;;;;;5033274;28;20177;-66
2022/04/04 06:08:21;;;;;;;0.40;0.40;;;1.60;80.90;;;;;;5029847;28;20723;-66
2022/04/04 06:10:46;;;;;;;0.50;0.50;;;1.90;79.50;;;;;;5034935;28;20170;-66
2022/04/04 06:13:16;;;;;;;0.40;0.40;;;2.00;78.80;;;;;;5035037;28;20631;-66
2022/04/04 06:15:43;;;;;;;0.40;0.40;;;2.20;78.30;;;;;;5033739;28;20178;-66
2022/04/04 06:18:10;;;;;;;0.40;0.40;;;2.40;77.10;;;;;;5035509;28;20179;-66
2022/04/04 06:20:36;;;;;;;0.40;0.40;;;2.50;76.60;;;;;;5035330;28;20174;-66
2022/04/04 06:23:02;;;;;;;0.40;0.40;;;2.80;76.20;;;;;;5035491;28;20203;-66
2022/04/04 06:25:29;;;;;;;0.40;0.40;;;2.80;75.80;;;;;;5035342;28;20675;-66
2022/04/04 06:27:55;;;;;;;0.30;0.30;;;3.00;74.90;;;;;;5035112;28;20171;-66
2022/04/04 06:30:21;;;;;;;0.30;0.30;;;3.30;73.80;;;;;;5035259;28;20229;-66
2022/04/04 06:32:46;;;;;;;0.30;0.30;;;3.30;73.90;;;;;;5035103;28;20175;-66
2022/04/04 06:35:13;;;;;;;0.40;0.40;;;3.50;73.70;;;;;;5035138;28;20431;-66
2022/04/04 06:37:40;;;;;;;0.40;0.40;;;3.80;74.20;;;;;;5035061;28;20178;-66
2022/04/04 06:40:07;;;;;;;0.30;0.30;;;4.10;71.30;;;;;;5034663;28;20196;-66
2022/04/04 06:42:38;;;;;;;0.35;0.35;;;4.30;69.60;;;;;;5034959;28;20322;-66
2022/04/04 06:45:06;;;;;;;0.40;0.40;;;4.30;70.60;;;;;;5034873;28;20276;-66
2022/04/04 06:47:32;;;;;;;0.40;0.40;;;4.40;70.50;;;;;;5034984;28;20638;-66
2022/04/04 06:49:59;;;;;;;0.30;0.30;;;4.90;69.60;;;;;;5035061;28;20201;-66
2022/04/04 06:52:25;;;;;;;0.68;0.68;;;5.30;68.60;;;;;;5034893;28;20528;-66
2022/04/04 06:54:53;;;;;;;0.40;0.40;;;5.60;66.60;;;;;;5033916;28;20650;-66
2022/04/04 06:57:19;;;;;;;0.40;0.40;;;5.90;64.80;;;;;;5033698;28;20205;-66
2022/04/04 06:59:45;;;;;;;0.40;0.40;;;6.10;63.50;;;;;;5034550;28;20276;-66
2022/04/04 07:02:10;;;;;;;0.30;0.30;;;6.60;64.10;;;;;;5034829;28;20669;-66
2022/04/04 07:04:37;;;;;;;0.30;0.30;;;7.00;61.50;;;;;;5034866;28;20439;-66
2022/04/04 07:07:04;;;;;;;0.40;0.40;;;7.40;60.50;;;;;;5035148;28;20206;-66
2022/04/04 07:09:30;;;;;;;0.40;0.40;;;7.50;58.90;;;;;;5033112;28;20519;-66
2022/04/04 07:11:57;;;;;;;0.40;0.40;;;7.80;58.70;;;;;;5033973;28;20178;-66
2022/04/04 07:14:24;;;;;;;0.38;0.38;;;8.50;59.40;;;;;;5034564;28;20402;-66
2022/04/04 07:16:52;;;;;;;0.30;0.30;;;9.20;56.50;;;;;;5032327;28;20642;-66
2022/04/04 07:19:20;;;;;;;0.38;0.38;;;10.00;53.60;;;;;;5034126;28;20216;-66
2022/04/04 07:21:45;;;;;;;0.40;0.40;;;10.60;50.60;;;;;;5034238;28;20188;-66
2022/04/04 07:24:11;;;;;;;0.50;0.50;;;11.40;48.10;;;;;;5032054;28;20197;-66
2022/04/04 07:26:37;;;;;;;0.30;0.30;;;12.80;45.50;;;;;;5033220;28;20174;-66
2022/04/04 07:29:02;;;;;;;0.50;0.50;;;13.70;44.20;;;;;;5033348;28;20278;-67
2022/04/04 07:31:29;;;;;;;1.23;1.23;;;14.60;43.20;;;;;;5032767;28;20194;-67
2022/04/04 07:33:55;;;;;;;0.40;0.40;;;15.50;40.90;;;;;;5034576;28;20880;-66
2022/04/04 07:36:21;;;;;;;1.03;1.03;;;16.00;38.10;;;;;;5034498;28;20258;-67
2022/04/04 07:38:47;;;;;;;0.30;0.30;;;16.60;37.00;;;;;;5034342;28;20266;-67
2022/04/04 07:41:12;;;;;;;0.40;0.40;;;16.70;34.30;;;;;;5031466;28;20425;-67
2022/04/04 07:43:38;;;;;;;0.30;0.30;;;16.20;35.30;;;;;;5033834;28;20210;-67
2022/04/04 07:46:05;;;;;;;0.40;0.40;;;16.20;34.40;;;;;;5032879;28;20179;-67
2022/04/04 07:48:32;;;;;;;0.60;0.60;;;16.30;33.60;;;;;;5031905;28;20182;-66
2022/04/04 07:50:58;;;;;;;0.30;0.30;;;15.50;34.00;;;;;;5034186;28;20417;-66
2022/04/04 07:53:24;;;;;;;0.40;0.40;;;15.80;35.00;;;;;;5031493;28;20312;-66
2022/04/04 07:55:49;;;;;;;0.30;0.30;;;16.60;34.50;;;;;;5031213;28;21037;-66
2022/04/04 07:58:17;;;;;;;0.30;0.30;;;16.80;33.10;;;;;;5031552;28;20179;-66
2022/04/04 08:00:43;;;;;;;0.30;0.30;;;15.90;31.90;;;;;;5031575;28;20163;-66
2022/04/04 08:03:09;;;;;;;0.40;0.40;;;14.80;32.80;;;;;;5032443;28;20197;-66
2022/04/04 08:05:34;;;;;;;0.50;0.50;;;14.90;33.70;;;;;;5033175;28;20763;-67
2022/04/04 08:08:00;;;;;;;0.40;0.40;;;15.20;33.10;;;;;;5033344;28;20171;-66
2022/04/04 08:10:25;;;;;;;0.30;0.30;;;15.30;32.60;;;;;;5031624;28;20355;-66
2022/04/04 08:12:51;;;;;;;0.47;0.47;;;14.50;33.70;;;;;;5033384;28;20573;-66
2022/04/04 08:15:17;;;;;;;0.63;0.63;;;13.10;34.50;;;;;;5033052;28;20217;-66
2022/04/04 08:17:43;;;;;;;0.40;0.40;;;12.10;36.40;;;;;;5033303;28;20412;-66
2022/04/04 08:20:09;;;;;;;0.40;0.40;;;12.40;38.90;;;;;;5033070;28;20193;-66
2022/04/04 08:22:41;;;;;;;0.40;0.40;;;13.10;36.80;;;;;;5033119;28;20622;-66
2022/04/04 08:25:08;;;;;;;0.40;0.40;;;13.30;35.90;;;;;;5033757;28;20178;-66
2022/04/04 08:27:35;;;;;;;0.50;0.50;;;13.10;35.60;;;;;;5033299;28;20174;-66
2022/04/04 08:30:06;;;;;;;0.40;0.40;;;12.50;36.80;;;;;;5033053;28;20225;-66
2022/04/04 08:32:36;;;;;;;0.50;0.50;;;12.50;36.80;;;;;;5033314;28;20275;-66
2022/04/04 08:35:06;;;;;;;0.30;0.30;;;13.40;36.30;;;;;;5033590;28;20258;-66
2022/04/04 08:37:33;;;;;;;0.30;0.30;;;14.60;34.20;;;;;;5033276;28;20640;-66
2022/04/04 08:39:59;;;;;;;0.30;0.30;;;15.10;32.60;;;;;;5033168;28;20723;-66
2022/04/04 08:42:27;;;;;;;0.30;0.30;;;14.60;33.50;;;;;;5033105;28;20226;-66
2022/04/04 08:44:57;;;;;;;0.30;0.30;;;15.60;33.50;;;;;;5033187;28;20402;-67
2022/04/04 08:47:23;;;;;;;0.57;0.57;;;15.90;33.40;;;;;;5033320;28;20427;-67
2022/04/04 08:49:54;;;;;;;0.40;0.40;;;15.90;32.80;;;;;;5033075;28;20449;-67
2022/04/04 08:52:20;;;;;;;0.40;0.40;;;16.80;32.50;;;;;;5033337;28;20824;-67
2022/04/04 08:54:47;;;;;;;0.40;0.40;;;16.30;30.50;;;;;;5033464;28;20413;-67
2022/04/04 08:57:13;;;;;;;1.23;1.23;;;15.80;31.40;;;;;;5033267;28;20413;-67
2022/04/04 08:59:39;;;;;;;0.30;0.30;;;14.40;32.20;;;;;;5032549;28;20431;-66
2022/04/04 09:02:05;;;;;;;0.40;0.40;;;13.20;34.20;;;;;;5031288;28;20708;-67
2022/04/04 09:04:33;;;;;;;0.30;0.30;;;13.10;35.80;;;;;;5032964;28;20509;-67
2022/04/04 09:07:05;;;;;;;0.38;0.38;;;12.90;35.80;;;;;;5033307;28;20494;-67
2022/04/04 09:09:38;;;;;;;0.30;0.30;;;12.90;34.90;;;;;;5031255;28;20282;-66
2022/04/04 09:12:09;;;;;;;0.33;0.33;;;14.00;35.40;;;;;;5032792;28;20164;-67
2022/04/04 09:14:44;;;;;;;0.30;0.30;;;15.40;34.20;;;;;;5032576;28;20483;-67
2022/04/04 09:17:11;;;;;;;0.30;0.30;;;14.90;33.10;;;;;;5030796;28;20462;-67
2022/04/04 09:19:38;;;;;;;0.30;0.30;;;14.50;33.30;;;;;;5032664;28;20417;-67
2022/04/04 09:22:12;;;;;;;0.30;0.30;;;14.90;33.00;;;;;;5033853;28;20486;-67
2022/04/04 09:24:56;;;;;;;0.30;0.30;;;13.70;32.30;;;;;;5034890;28;20414;-67
2022/04/04 09:27:25;;;;;;;0.70;0.70;;;12.80;34.70;;;;;;5036762;28;20170;-67
2022/04/04 09:29:54;;;;;;;1.08;0.98;;;11.00;37.00;;;;;;5034267;28;20194;-67
2022/04/04 09:32:20;;;;;;;0.30;0.30;;;10.80;39.00;;;;;;5036905;28;20183;-67
2022/04/04 09:34:53;;;;;;;0.32;0.32;;;10.90;39.60;;;;;;5036823;28;20175;-67
2022/04/04 09:37:21;;;;;;;0.40;0.40;;;11.10;39.50;;;;;;5036830;28;20178;-67
2022/04/04 09:39:49;;;;;;;0.30;0.30;;;11.10;38.30;;;;;;5036079;28;20664;-67
2022/04/04 09:42:17;;;;;;;0.30;0.30;;;11.50;40.20;;;;;;5036272;28;20222;-67
2022/04/04 09:45:00;;;;;;;0.30;0.30;;;11.70;37.80;;;;;;5036521;28;20163;-67
2022/04/04 09:47:55;;;;;;;0.50;0.50;;;11.90;37.30;;;;;;5035674;28;20181;-67
2022/04/04 09:50:45;;;;;;;0.30;0.30;;;11.70;37.10;;;;;;5035970;28;20269;-67
2022/04/04 09:53:21;;;;;;;0.30;0.30;;;11.70;38.10;;;;;;5036433;28;20195;-67
2022/04/04 09:55:52;;;;;;;0.30;0.30;;;12.80;36.90;;;;;;5036077;28;20185;-67
2022/04/04 09:58:20;;;;;;;0.30;0.30;;;12.80;36.30;;;;;;5036269;28;20218;-67
2022/04/04 10:00:48;;;;;;;0.40;0.40;;;11.80;37.40;;;;;;5035877;28;20183;-66
2022/04/04 10:03:16;;;;;;;0.43;0.43;;;10.70;36.90;;;;;;5035985;28;20604;-68
2022/04/04 10:05:47;;;;;;;0.40;0.40;;;9.20;38.10;;;;;;5036243;28;20654;-68
2022/04/04 10:08:15;;;;;;;0.40;0.40;;;7.90;41.20;;;;;;5036037;28;20208;-68
2022/04/04 10:10:43;;;;;;;0.38;0.38;;;8.20;43.50;;;;;;5036246;28;20169;-67
2022/04/04 10:13:11;;;;;;;0.30;0.30;;;9.60;42.60;;;;;;5035658;28;20176;-68
2022/04/04 10:15:37;;;;;;;0.75;0.75;;;10.10;40.10;;;;;;5035743;28;20526;-68
2022/04/04 10:18:04;;;;;;;0.30;0.30;;;9.40;40.00;;;;;;5036030;28;20187;-67
2022/04/04 10:20:30;;;;;;;0.63;0.63;;;9.00;41.80;;;;;;5033483;28;20174;-68
2022/04/04 10:22:57;;;;;;;0.30;0.30;;;9.40;42.30;;;;;;5035674;28;20262;-68
2022/04/04 10:25:26;;;;;;;0.47;0.47;;;9.70;41.80;;;;;;5035503;28;20170;-68
2022/04/04 10:27:52;;;;;;;0.40;0.40;;;9.70;40.90;;;;;;5035746;28;20169;-68
2022/04/04 10:30:30;;;;;;;0.75;0.75;;;9.70;42.20;;;;;;5035407;28;20221;-67
2022/04/04 10:32:56;;;;;;;0.77;0.77;;;9.40;42.10;;;;;;5033767;28;20174;-67
2022/04/04 10:35:26;;;;;;;0.40;0.40;;;9.30;42.70;;;;;;5034464;28;20204;-67
2022/04/04 10:37:53;;;;;;;0.40;0.40;;;9.00;44.20;;;;;;5036062;28;20184;-68
2022/04/04 10:40:23;;;;;;;0.30;0.30;;;9.20;45.90;;;;;;5035012;28;20212;-67
2022/04/04 10:43:13;;;;;;;0.30;0.30;;;9.10;45.10;;;;;;5035413;28;20207;-69
2022/04/04 10:46:00;;;;;;;0.90;0.90;;;9.20;44.30;;;;;;5035655;28;20521;-68
2022/04/04 10:48:35;;;;;;;0.30;0.30;;;9.10;44.30;;;;;;5036189;28;20193;-68
2022/04/04 10:51:17;;;;;;;0.82;0.82;;;9.10;44.50;;;;;;5035049;28;20164;-67
2022/04/04 10:53:47;;;;;;;0.40;0.40;;;8.80;44.30;;;;;;5035505;28;20176;-68
2022/04/04 10:56:22;;;;;;;0.40;0.40;;;9.40;44.80;;;;;;5034812;28;20227;-68
2022/04/04 10:58:49;;;;;;;0.93;0.93;;;9.90;41.90;;;;;;5035497;28;20200;-68
2022/04/04 11:01:18;;;;;;;0.30;0.30;;;9.20;42.30;;;;;;5034729;28;20603;-68
2022/04/04 11:04:00;;;;;;;0.40;0.40;;;8.40;42.60;;;;;;5034811;28;20207;-68
2022/04/04 11:09:26;;;;;;;1.38;1.38;;;8.10;45.40;;;;;;5035014;28;20330;-68
2022/04/04 11:12:08;;;;;;;0.30;0.30;;;8.00;45.40;;;;;;5034776;28;20160;-68
2022/04/04 11:14:41;;;;;;;0.77;0.77;;;7.80;43.70;;;;;;5034832;28;20159;-68
2022/04/04 11:20:13;;;;;;;0.40;0.40;;;7.00;46.10;;;;;;5034152;28;20256;-68
2022/04/04 11:22:46;;;;;;;0.30;0.30;;;7.40;47.20;;;;;;5034333;28;20207;-68
2022/04/04 11:25:20;;;;;;;0.65;0.65;;;7.80;46.10;;;;;;5032629;28;20179;-66
2022/04/04 11:27:48;;;;;;;0.30;0.30;;;8.00;45.70;;;;;;5034814;28;20174;-67
2022/04/04 11:30:16;;;;;;;0.38;0.38;;;8.00;45.70;;;;;;5033926;28;20191;-67
2022/04/04 11:32:42;;;;;;;0.30;0.30;;;8.00;46.50;;;;;;5032318;28;20182;-67
2022/04/04 11:35:15;;;;;;;0.30;0.30;;;8.30;46.20;;;;;;5032276;28;20181;-67
2022/04/04 11:37:45;;;;;;;0.40;0.40;;;8.70;45.80;;;;;;5033796;28;20201;-67
2022/04/04 11:40:29;;;;;;;0.30;0.30;;;8.60;45.20;;;;;;5033532;28;20197;-67
2022/04/04 11:42:56;;;;;;;0.30;0.30;;;8.50;44.30;;;;;;5033425;28;20223;-67
2022/04/04 11:45:23;;;;;;;0.40;0.40;;;8.10;44.30;;;;;;5033223;28;20208;-67
2022/04/04 11:48:02;;;;;;;0.30;0.30;;;7.60;45.10;;;;;;5032739;28;20677;-67
2022/04/04 11:50:30;;;;;;;0.40;0.40;;;7.00;47.50;;;;;;5033738;28;20157;-68
2022/04/04 11:53:00;;;;;;;0.40;0.40;;;7.00;47.90;;;;;;5033981;28;20175;-67
2022/04/04 11:55:27;;;;;;;0.35;0.35;;;7.60;47.70;;;;;;5033769;28;20169;-67
2022/04/04 11:57:59;;;;;;;0.90;0.90;;;7.90;47.20;;;;;;5033775;28;20311;-67
2022/04/04 12:00:31;;;;;;;1.60;1.50;;;7.80;45.60;;;;;;5033659;28;20179;-67
2022/04/04 12:03:04;;;;;;;0.30;0.30;;;8.20;46.00;;;;;;5034075;28;20273;-67
2022/04/04 12:05:33;;;;;;;0.40;0.40;;;7.40;46.60;;;;;;5033585;28;20183;-67
2022/04/04 12:07:59;;;;;;;0.40;0.40;;;7.90;48.10;;;;;;5033910;28;20604;-66
2022/04/04 12:10:31;;;;;;;0.38;0.38;;;7.70;45.30;;;;;;5033474;28;20175;-67
2022/04/04 12:13:19;;;;;;;0.32;0.32;;;7.60;45.80;;;;;;5033694;28;20711;-67
2022/04/04 12:15:46;;;;;;;0.40;0.40;;;6.30;46.20;;;;;;5033959;28;20178;-67
2022/04/04 12:18:21;;;;;;;0.40;0.40;;;6.10;47.80;;;;;;5033851;28;20185;-67
2022/04/04 12:20:48;;;;;;;0.40;0.40;;;6.40;49.80;;;;;;5033334;28;20167;-67
2022/04/04 12:26:03;;;;;;;0.40;0.40;;;6.90;49.60;;;;;;5033869;28;20178;-66
2022/04/04 12:28:34;;;;;;;0.40;0.40;;;6.70;48.20;;;;;;5033763;28;20187;-67
2022/04/04 12:31:20;;;;;;;0.40;0.40;;;6.50;48.40;;;;;;5033291;28;20168;-67
2022/04/04 12:34:10;;;;;;;0.98;0.88;;;6.80;47.90;;;;;;5033508;28;20213;-67
2022/04/04 12:36:43;;;;;;;0.40;0.40;;;7.00;48.30;;;;;;5033503;28;20535;-67
2022/04/04 12:39:18;;;;;;;0.40;0.40;;;7.20;48.20;;;;;;5033288;28;20198;-66
2022/04/04 12:41:53;;;;;;;0.38;0.38;;;6.70;48.50;;;;;;5033418;28;20201;-67
2022/04/04 12:44:24;;;;;;;0.38;0.38;;;6.50;49.70;;;;;;5033243;28;20256;-67
2022/04/04 12:46:50;;;;;;;0.70;0.70;;;6.70;49.50;;;;;;5033951;28;20258;-67
2022/04/04 12:49:23;;;;;;;0.40;0.40;;;6.90;50.00;;;;;;5032994;28;20198;-67
2022/04/04 12:51:58;;;;;;;0.40;0.40;;;7.20;50.80;;;;;;5048775;28;20649;-67
2022/04/04 12:54:31;;;;;;;0.40;0.40;;;7.20;49.70;;;;;;5033206;28;20183;-67
2022/04/04 12:56:59;;;;;;;0.30;0.30;;;7.40;49.70;;;;;;5035592;28;20179;-67
2022/04/04 12:59:26;;;;;;;0.38;0.38;;;6.80;48.50;;;;;;5036767;28;20662;-68
2022/04/04 13:02:11;;;;;;;0.40;0.40;;;6.50;48.80;;;;;;5037058;28;20633;-67
2022/04/04 13:04:38;;;;;;;0.40;0.40;;;6.30;50.20;;;;;;5037259;28;20193;-67
2022/04/04 13:07:13;;;;;;;0.40;0.40;;;6.60;50.20;;;;;;5037088;28;20171;-67
2022/04/04 13:09:52;;;;;;;0.40;0.40;;;6.30;49.30;;;;;;5036973;28;20190;-67
2022/04/04 13:12:26;;;;;;;0.40;0.40;;;5.90;50.40;;;;;;5036856;28;20191;-67